Tafton, Pennsylvania
Current Conditions -  °F | °C
As of 2:53 PM on Friday 19 Dec 2014 (Local Time) from KMPO Reporting Station
Overcast Overcast  
Wind Chill: 15°   Ceiling: 1700
Heat Index: 26°   Visibility: 10mi
Dew Point: 18°   Wind: 13mph
Humidity: 71%   Direction: 310°NW
Pressure: 30"   Gusts: NA
Location:  41.4°N, 75.18°W
Report Text: KMPO 191953Z AUTO 31011KT 10SM OVC017 M03/M08 A3000 RMK AO2 SLP184 T10331078
Loading
Personal Weather Stations






























Interactive Weather Map New forecast layout! Learn more

10-Day Weather Forecast

Advertisements
Track Severe Weather on mobile